Time;durP1;ratioP1;P1;durP2;ratioP2;P2;SDS_P1;SDS_P2;PMS_P1;PMS_P2;Temp;Humidity;BMP_temperature;BMP_pressure;BME280_temperature;BME280_humidity;BME280_pressure;Samples;Min_cycle;Max_cycle;Signal;HPM_P1;HPM_P2
2022/10/27 00:01:07;;;;;;;18.53;15.17;;;11.50;99.90;;;-141.84;99.76;16043.59;5031910;28;20469;-58
2022/10/27 00:03:35;;;;;;;17.30;15.47;;;11.50;99.90;;;-141.84;99.74;16055.78;5032088;28;20303;-59
2022/10/27 00:06:07;;;;;;;17.97;15.93;;;11.50;99.90;;;-141.84;99.75;16059.84;5031779;28;20232;-60
2022/10/27 00:08:36;;;;;;;18.07;15.07;;;11.40;99.90;;;-141.84;99.94;16007.06;5031991;28;20228;-59
2022/10/27 00:11:07;;;;;;;16.87;15.10;;;11.40;99.90;;;-141.84;99.96;16019.25;5032524;28;20330;-60
2022/10/27 00:13:36;;;;;;;18.00;15.60;;;11.40;99.90;;;-141.84;99.93;16045.63;5032055;28;20241;-60
2022/10/27 00:16:09;;;;;;;16.37;14.47;;;11.40;99.90;;;-141.84;100.00;16029.41;5031563;28;20233;-60
2022/10/27 00:18:37;;;;;;;20.47;16.03;;;11.30;99.90;;;-141.84;100.00;15994.88;5031737;28;20593;-61
2022/10/27 00:21:09;;;;;;;18.00;14.70;;;11.30;99.90;;;-141.84;100.00;15978.63;5031587;28;20226;-59
2022/10/27 00:23:38;;;;;;;14.67;11.87;;;11.30;99.90;;;-141.84;100.00;15929.91;5031896;28;20573;-58
2022/10/27 00:26:10;;;;;;;13.93;11.80;;;11.30;99.90;;;-141.84;100.00;15950.22;5032318;28;20222;-61
2022/10/27 00:28:38;;;;;;;15.20;11.30;;;11.30;99.90;;;-141.84;100.00;15901.47;5031608;28;20230;-59
2022/10/27 00:31:13;;;;;;;16.37;13.80;;;11.30;99.90;;;-141.84;100.00;15919.75;5031731;28;20226;-60
2022/10/27 00:33:42;;;;;;;19.70;14.50;;;11.20;99.90;;;-141.84;100.00;15869.00;5031494;28;20229;-59
2022/10/27 00:36:13;;;;;;;20.50;14.67;;;11.20;99.90;;;-141.84;100.00;15885.25;5030313;28;20234;-60
2022/10/27 00:38:41;;;;;;;19.33;13.33;;;11.20;99.90;;;-141.84;100.00;15871.03;5031477;28;20983;-59
2022/10/27 00:41:25;;;;;;;15.90;11.63;;;11.20;99.90;;;-141.84;100.00;15844.63;5031762;28;20222;-59
2022/10/27 00:43:54;;;;;;;19.00;11.73;;;11.20;99.90;;;-141.84;100.00;15832.47;5015336;28;20280;-60
2022/10/27 00:46:39;;;;;;;14.53;10.57;;;11.20;99.90;;;-141.84;100.00;15858.84;5031263;28;20276;-60
2022/10/27 00:49:11;;;;;;;10.60;9.50;;;11.20;99.90;;;-141.84;100.00;15842.59;5031337;28;20234;-61
2022/10/27 00:51:43;;;;;;;11.55;10.35;;;11.20;99.90;;;-141.84;100.00;15799.97;5030653;28;20226;-59
2022/10/27 00:54:13;;;;;;;11.63;10.10;;;11.20;99.90;;;-141.84;100.00;15832.47;5030854;28;20280;-59
2022/10/27 00:56:42;;;;;;;11.63;10.43;;;11.20;99.90;;;-141.84;100.00;15816.22;5030976;28;20232;-59
2022/10/27 00:59:11;;;;;;;12.03;10.60;;;11.20;99.90;;;-141.84;100.00;15781.69;5031739;28;20237;-59
2022/10/27 01:01:42;;;;;;;17.13;11.37;;;11.20;99.90;;;-141.84;100.00;15791.84;5030800;28;20230;-60
2022/10/27 01:04:11;;;;;;;21.17;16.93;;;11.10;99.90;;;-141.84;100.00;15763.44;5031114;28;20230;-59
2022/10/27 01:06:40;;;;;;;20.80;16.83;;;11.10;99.90;;;-141.84;100.00;15781.69;5030863;28;20336;-59
2022/10/27 01:09:09;;;;;;;27.13;16.63;;;11.10;99.90;;;-141.84;100.00;15771.53;5030822;28;20284;-60
2022/10/27 01:11:37;;;;;;;16.00;14.30;;;11.10;99.90;;;-141.84;100.00;15737.03;5030865;28;20591;-60
2022/10/27 01:14:05;;;;;;;16.77;13.60;;;11.10;99.90;;;-141.84;100.00;15767.50;5031510;28;20214;-59
2022/10/27 01:16:42;;;;;;;16.83;13.73;;;11.10;99.90;;;-141.84;100.00;15714.69;5031075;28;20226;-60
2022/10/27 01:19:39;;;;;;;14.27;12.37;;;11.10;99.90;;;-141.84;100.00;15763.44;5030790;28;20222;-60
2022/10/27 01:22:20;;;;;;;15.50;13.00;;;11.10;99.90;;;-141.84;100.00;15722.81;5030656;28;20234;-60
2022/10/27 01:25:11;;;;;;;14.00;12.30;;;11.20;99.90;;;-141.84;100.00;15684.25;5031020;28;20241;-60
2022/10/27 01:28:08;;;;;;;20.33;13.90;;;11.00;99.90;;;-141.84;100.00;15708.59;5030535;28;20238;-60
2022/10/27 01:30:56;;;;;;;16.77;11.55;;;11.10;99.90;;;-141.84;100.00;15696.44;5030583;28;20221;-59
2022/10/27 01:33:34;;;;;;;15.47;11.50;;;11.10;99.90;;;-141.84;100.00;15670.03;5030797;28;20229;-61
2022/10/27 01:36:09;;;;;;;13.00;10.50;;;11.10;99.90;;;-141.84;100.00;15641.63;5030489;28;20837;-59
2022/10/27 01:38:48;;;;;;;12.17;10.97;;;11.00;99.90;;;-141.84;100.00;15672.06;5030848;28;20233;-60
2022/10/27 01:41:24;;;;;;;15.07;11.57;;;11.00;99.90;;;-141.84;100.00;15668.00;5030996;28;20697;-59
2022/10/27 01:43:58;;;;;;;13.43;11.57;;;11.00;99.90;;;-141.84;100.00;15637.56;5030630;28;20218;-59
2022/10/27 01:46:28;;;;;;;14.47;12.07;;;11.00;99.90;;;-141.84;100.00;15615.22;5030325;28;20237;-59
2022/10/27 01:48:57;;;;;;;13.20;11.87;;;10.90;99.90;;;-141.84;100.00;15615.22;5033583;28;20230;-59
2022/10/27 01:51:25;;;;;;;15.63;11.63;;;10.90;99.90;;;-141.84;100.00;15627.41;5033673;28;20697;-59
2022/10/27 01:53:54;;;;;;;13.57;11.47;;;10.90;99.90;;;-141.84;100.00;15568.53;5034213;28;20584;-59
2022/10/27 01:56:51;;;;;;;13.90;10.80;;;10.90;99.90;;;-141.84;100.00;15576.66;5034564;28;20328;-61
2022/10/27 01:59:38;;;;;;;11.67;10.30;;;10.90;99.90;;;-141.84;100.00;15560.41;5034660;28;20608;-59
2022/10/27 02:02:22;;;;;;;11.10;10.00;;;11.00;99.90;;;-141.84;100.00;15550.25;5034619;28;20224;-59
2022/10/27 02:05:03;;;;;;;12.87;11.30;;;11.00;99.90;;;-141.84;100.00;15540.09;5034524;28;20283;-60
2022/10/27 02:07:44;;;;;;;16.00;12.90;;;11.00;99.90;;;-141.84;100.00;15556.34;5034132;28;20221;-59
2022/10/27 02:10:19;;;;;;;16.13;12.60;;;11.00;99.90;;;-141.84;100.00;15548.22;5034347;28;20689;-59
2022/10/27 02:12:49;;;;;;;18.23;15.48;;;11.00;99.90;;;-141.84;100.00;15536.03;5034077;28;20278;-59
2022/10/27 02:15:31;;;;;;;18.60;13.87;;;11.00;99.90;;;-141.84;100.00;15529.97;5034112;28;20588;-60
2022/10/27 02:18:05;;;;;;;17.80;14.50;;;11.10;99.90;;;-141.84;100.00;15485.28;5034203;28;20222;-60
2022/10/27 02:20:40;;;;;;;24.33;16.23;;;11.10;99.90;;;-141.84;100.00;15481.22;5034190;28;20229;-59
2022/10/27 02:23:15;;;;;;;16.70;13.87;;;11.10;99.90;;;-141.84;100.00;15487.31;5033941;28;20218;-60
2022/10/27 02:25:52;;;;;;;16.17;13.33;;;11.00;99.90;;;-141.84;100.00;15440.63;5034353;28;20263;-62
2022/10/27 02:28:26;;;;;;;18.77;13.73;;;11.00;99.90;;;-141.84;100.00;15408.16;5033969;28;20225;-59
2022/10/27 02:30:59;;;;;;;16.20;12.80;;;11.00;99.90;;;-141.84;100.00;15436.56;5033988;28;20232;-59
2022/10/27 02:33:29;;;;;;;16.37;13.30;;;11.00;99.90;;;-141.84;100.00;15393.94;5033570;28;20237;-60
2022/10/27 02:35:58;;;;;;;15.90;13.50;;;11.00;99.90;;;-141.84;100.00;15349.28;5033454;28;20280;-59
2022/10/27 02:38:26;;;;;;;15.93;13.07;;;10.90;99.90;;;-141.84;100.00;15377.69;5033455;28;20218;-60
2022/10/27 02:40:54;;;;;;;15.70;13.33;;;10.90;99.90;;;-141.84;100.00;15373.63;5034211;28;20226;-59
2022/10/27 02:43:22;;;;;;;15.13;12.87;;;10.90;99.90;;;-141.84;100.00;15335.06;5033560;28;20226;-60
2022/10/27 02:45:50;;;;;;;13.32;10.85;;;10.90;99.90;;;-141.84;100.00;15296.50;5033480;28;20234;-59
2022/10/27 02:48:18;;;;;;;13.97;11.50;;;10.90;99.90;;;-141.84;100.00;15298.53;5033239;28;20222;-60
2022/10/27 02:50:47;;;;;;;16.03;12.93;;;10.90;99.90;;;-141.84;100.00;15138.16;5033419;28;20763;-60
2022/10/27 02:53:15;;;;;;;17.63;12.33;;;11.00;99.90;;;-141.84;100.00;15107.72;5033851;28;20709;-61
2022/10/27 02:55:43;;;;;;;17.23;12.50;;;11.00;99.90;;;-141.84;100.00;15113.81;5033892;28;20280;-61
2022/10/27 02:58:11;;;;;;;15.70;12.53;;;11.00;99.90;;;-141.84;100.00;15048.84;5032903;28;20280;-60
2022/10/27 03:00:39;;;;;;;14.97;12.47;;;11.00;99.90;;;-141.84;100.00;15050.88;5032467;28;20237;-60
2022/10/27 03:03:07;;;;;;;20.77;17.27;;;11.00;99.90;;;-141.84;100.00;15061.03;5033130;28;20218;-59
2022/10/27 03:05:35;;;;;;;31.43;24.93;;;11.00;99.90;;;-141.84;100.00;15026.53;5033171;28;20222;-60
2022/10/27 03:08:06;;;;;;;33.77;25.63;;;11.00;99.90;;;-141.84;100.00;15004.19;5033487;28;20226;-60
2022/10/27 03:10:34;;;;;;;24.60;19.33;;;11.00;99.90;;;-141.84;100.00;15000.13;5033079;28;20245;-61
2022/10/27 03:13:02;;;;;;;24.30;19.97;;;11.00;99.90;;;-141.84;100.00;15010.28;5032866;28;20225;-60
2022/10/27 03:15:30;;;;;;;23.37;16.63;;;11.00;99.90;;;-141.84;100.00;15004.19;5032825;28;20222;-59
2022/10/27 03:17:58;;;;;;;19.43;13.27;;;11.00;99.90;;;-141.84;100.00;14969.69;5032959;28;20230;-60
2022/10/27 03:20:26;;;;;;;17.33;12.37;;;11.00;99.90;;;-141.84;100.00;14955.47;5033115;28;20218;-62
2022/10/27 03:22:54;;;;;;;13.83;11.57;;;11.00;99.90;;;-141.84;100.00;14951.41;5032758;28;20206;-61
2022/10/27 03:25:23;;;;;;;10.90;9.70;;;10.90;99.90;;;-141.84;100.00;14935.19;5032688;28;20655;-60
2022/10/27 03:27:51;;;;;;;10.43;9.17;;;10.90;99.90;;;-141.84;100.00;14914.88;5032657;28;20226;-60
2022/10/27 03:30:19;;;;;;;11.73;9.67;;;11.10;99.90;;;-141.84;100.00;14872.25;5032766;28;20222;-59
2022/10/27 03:32:50;;;;;;;12.73;10.13;;;10.90;99.90;;;-141.84;100.00;14856.00;5032512;28;20229;-62
2022/10/27 03:35:20;;;;;;;12.07;9.53;;;10.90;99.90;;;-141.84;100.00;14851.97;5032679;28;20221;-60
2022/10/27 03:37:55;;;;;;;13.27;9.90;;;10.90;99.90;;;-141.84;100.00;14843.84;5032922;28;20288;-60
2022/10/27 03:40:25;;;;;;;14.07;11.53;;;10.90;99.90;;;-141.84;100.00;14817.44;5033481;28;20245;-59
2022/10/27 03:42:57;;;;;;;13.97;11.50;;;10.90;99.90;;;-141.84;100.00;14847.91;5031742;28;20694;-60
2022/10/27 03:45:26;;;;;;;13.77;11.93;;;10.90;99.90;;;-141.84;100.00;14847.91;5032550;28;20221;-60
2022/10/27 03:48:01;;;;;;;15.63;12.57;;;10.90;99.90;;;-141.84;100.00;14811.34;5032450;28;20229;-60
2022/10/27 03:50:29;;;;;;;21.63;15.50;;;10.90;99.90;;;-141.84;100.00;14805.28;5032149;28;20226;-60
2022/10/27 03:52:57;;;;;;;17.43;14.40;;;10.90;99.90;;;-141.84;100.00;14782.94;5032738;28;20222;-60
2022/10/27 03:55:27;;;;;;;18.53;13.70;;;10.90;99.90;;;-141.84;100.00;14782.94;5032350;28;20257;-59
2022/10/27 03:57:55;;;;;;;16.17;12.00;;;10.80;99.90;;;-141.84;100.00;14764.69;5032154;28;20233;-60
2022/10/27 04:00:23;;;;;;;21.23;15.37;;;10.70;99.90;;;-141.84;100.00;14764.69;5032152;28;20230;-60
2022/10/27 04:02:54;;;;;;;20.17;15.80;;;10.70;99.90;;;-141.84;100.00;14754.53;5032549;28;20240;-60
2022/10/27 04:05:23;;;;;;;22.57;15.67;;;10.80;99.90;;;-141.84;100.00;14722.06;5032013;28;20630;-60
2022/10/27 04:07:51;;;;;;;18.70;15.83;;;10.80;99.90;;;-141.84;100.00;14748.44;5032754;28;20221;-60
2022/10/27 04:10:19;;;;;;;17.03;13.27;;;10.70;99.90;;;-141.84;100.00;14762.66;5031759;28;20413;-60
2022/10/27 04:12:54;;;;;;;22.57;15.33;;;10.70;99.90;;;-141.84;100.00;14693.63;5031898;28;20335;-60
2022/10/27 04:15:24;;;;;;;19.07;15.47;;;10.70;99.90;;;-141.84;100.00;14695.66;5032114;28;20235;-59
2022/10/27 04:17:53;;;;;;;19.97;14.90;;;10.80;99.90;;;-141.84;100.00;14699.72;5032015;28;20225;-60
2022/10/27 04:20:22;;;;;;;15.93;13.60;;;10.80;99.90;;;-141.84;100.00;14691.59;5031964;28;20251;-58
2022/10/27 04:22:50;;;;;;;14.90;13.00;;;10.80;99.90;;;-141.84;100.00;14681.47;5032328;28;20708;-59
2022/10/27 04:25:19;;;;;;;19.10;14.13;;;10.80;99.90;;;-141.84;100.00;14655.06;5031886;28;20234;-59
2022/10/27 04:27:47;;;;;;;16.70;14.53;;;10.70;99.90;;;-141.84;100.00;14679.44;5031483;28;20778;-59
2022/10/27 04:30:17;;;;;;;16.47;13.10;;;10.60;99.90;;;-141.84;100.00;14683.50;5031623;28;20249;-60
2022/10/27 04:32:45;;;;;;;14.20;11.83;;;10.60;99.90;;;-141.84;100.00;14590.13;5031668;28;20300;-60
2022/10/27 04:35:13;;;;;;;13.67;11.60;;;10.60;99.90;;;-141.84;100.00;14600.28;5031802;28;20222;-60
2022/10/27 04:37:41;;;;;;;15.70;12.20;;;10.50;99.90;;;-141.84;100.00;14612.44;5031487;28;20288;-60
2022/10/27 04:40:11;;;;;;;12.73;10.90;;;10.60;99.90;;;-141.84;100.00;14563.75;5031062;28;20237;-59
2022/10/27 04:42:45;;;;;;;13.93;10.87;;;10.60;99.90;;;-141.84;100.00;14535.31;5031030;28;20237;-58
2022/10/27 04:45:14;;;;;;;12.87;11.30;;;10.60;99.90;;;-141.84;100.00;14500.81;5031291;28;20229;-60
2022/10/27 04:47:44;;;;;;;15.93;11.60;;;10.50;99.90;;;-141.84;100.00;14494.72;5031495;28;20279;-58
2022/10/27 04:50:12;;;;;;;15.70;12.57;;;10.50;99.90;;;-141.84;100.00;14486.63;5031669;28;20244;-60
2022/10/27 04:52:41;;;;;;;15.20;13.60;;;10.60;99.90;;;-141.84;100.00;14519.09;5031360;28;20283;-59
2022/10/27 04:55:11;;;;;;;18.03;13.50;;;10.50;99.90;;;-141.84;100.00;14472.41;5030826;28;20230;-59
2022/10/27 04:57:39;;;;;;;17.97;13.30;;;10.50;99.90;;;-141.84;100.00;14462.25;5030607;28;20712;-59
2022/10/27 05:00:10;;;;;;;14.80;11.17;;;10.40;99.90;;;-141.84;100.00;14427.75;5031083;28;20257;-60
2022/10/27 05:02:38;;;;;;;12.33;10.57;;;10.40;99.90;;;-141.84;100.00;14411.53;5030863;28;20749;-60
2022/10/27 05:05:08;;;;;;;13.47;10.93;;;10.40;99.90;;;-141.84;100.00;14381.06;5031421;28;20229;-60
2022/10/27 05:07:36;;;;;;;11.73;10.03;;;10.40;99.90;;;-141.84;100.00;14397.31;5030744;28;20238;-60
2022/10/27 05:10:05;;;;;;;13.43;10.70;;;10.40;99.90;;;-141.84;100.00;14358.75;5030743;28;20237;-60
2022/10/27 05:12:33;;;;;;;13.73;10.07;;;10.50;99.90;;;-141.84;100.00;14328.31;5030592;28;20234;-60
2022/10/27 05:15:01;;;;;;;13.50;10.30;;;10.50;99.90;;;-141.84;100.00;14269.47;5030843;28;20222;-59
2022/10/27 05:17:29;;;;;;;15.30;11.70;;;10.50;99.90;;;-141.84;100.00;14277.56;5031009;28;20623;-60
2022/10/27 05:19:58;;;;;;;14.67;10.63;;;10.50;99.90;;;-141.84;100.00;14245.09;5030895;28;20668;-58
2022/10/27 05:22:27;;;;;;;13.10;10.83;;;10.50;99.90;;;-141.84;100.00;14261.34;5030267;28;20229;-59
2022/10/27 05:24:55;;;;;;;13.07;11.67;;;10.50;99.90;;;-141.84;100.00;14245.09;5030705;28;20226;-60
2022/10/27 05:27:23;;;;;;;11.80;10.13;;;10.50;99.90;;;-141.84;100.00;14232.94;5030344;28;20226;-59
2022/10/27 05:29:51;;;;;;;12.23;10.17;;;10.50;99.90;;;-141.84;100.00;14218.72;5030768;28;20283;-59
2022/10/27 05:32:19;;;;;;;12.37;10.67;;;10.60;99.90;;;-141.84;100.00;14232.94;5030852;28;20218;-59
2022/10/27 05:34:47;;;;;;;11.43;10.20;;;10.50;99.90;;;-141.84;100.00;14206.53;5030637;28;20214;-59
2022/10/27 05:37:15;;;;;;;14.13;10.20;;;10.40;99.90;;;-141.84;100.00;14196.41;5030613;28;20248;-60
2022/10/27 05:39:44;;;;;;;13.80;9.73;;;10.40;99.90;;;-141.84;100.00;14184.22;5030440;28;20238;-59
2022/10/27 05:42:12;;;;;;;13.27;9.47;;;10.40;99.90;;;-141.84;100.00;14184.22;5030394;28;20233;-59
2022/10/27 05:44:40;;;;;;;14.03;10.63;;;10.30;99.90;;;-141.84;100.00;14186.25;5030684;28;20246;-59
2022/10/27 05:47:09;;;;;;;14.83;10.93;;;10.40;99.90;;;-141.84;100.00;14232.94;5030350;28;20226;-60
2022/10/27 05:49:37;;;;;;;17.13;11.97;;;10.40;99.90;;;-141.84;100.00;14190.31;5030149;28;20221;-61
2022/10/27 05:52:05;;;;;;;12.57;10.13;;;10.40;99.90;;;-141.84;100.00;14163.94;5030276;28;20691;-59
2022/10/27 05:54:33;;;;;;;14.87;11.03;;;10.40;99.90;;;-141.84;100.00;14212.63;5030542;28;20233;-59
2022/10/27 05:57:02;;;;;;;11.93;10.50;;;10.40;99.90;;;-141.84;100.00;14180.16;5030035;28;20230;-60
2022/10/27 05:59:30;;;;;;;14.23;10.73;;;10.40;99.90;;;-141.84;100.00;14165.94;5030143;28;20218;-59
2022/10/27 06:01:58;;;;;;;15.50;10.17;;;10.40;99.90;;;-141.84;100.00;14174.06;5030895;28;20214;-60
2022/10/27 06:04:27;;;;;;;12.07;10.53;;;10.40;99.90;;;-141.84;100.00;14178.13;5030520;28;20307;-59
2022/10/27 06:06:55;;;;;;;15.00;10.53;;;10.40;99.90;;;-141.84;100.00;14178.13;5030181;28;20233;-61
2022/10/27 06:09:23;;;;;;;13.87;10.07;;;10.40;99.90;;;-141.84;100.00;14149.72;5030176;28;20241;-60
2022/10/27 06:11:51;;;;;;;15.13;11.00;;;10.40;99.90;;;-141.84;100.00;14153.78;5030190;28;20226;-60
2022/10/27 06:14:20;;;;;;;12.63;10.73;;;10.40;99.90;;;-141.84;100.00;14159.88;5030470;28;20239;-60
2022/10/27 06:16:50;;;;;;;13.27;10.63;;;10.40;99.90;;;-141.84;100.00;14109.13;5030774;28;20229;-61
2022/10/27 06:19:18;;;;;;;13.30;10.00;;;10.50;99.90;;;-141.84;100.00;14123.34;5030339;28;20260;-61
2022/10/27 06:21:46;;;;;;;12.10;10.30;;;10.50;99.90;;;-141.84;100.00;14167.97;5030191;28;20307;-60
2022/10/27 06:24:14;;;;;;;12.77;10.60;;;10.50;99.90;;;-141.84;100.00;14143.63;5029810;28;20709;-59
2022/10/27 06:26:42;;;;;;;14.77;10.23;;;10.50;99.90;;;-141.84;100.00;14125.38;5030178;28;20297;-60
2022/10/27 06:29:10;;;;;;;14.63;11.37;;;10.50;99.90;;;-141.84;100.00;14127.41;5030947;28;20226;-60
2022/10/27 06:31:41;;;;;;;12.33;10.80;;;10.50;99.90;;;-141.84;100.00;14111.16;5029459;28;20230;-59
2022/10/27 06:34:09;;;;;;;14.57;11.50;;;10.60;99.90;;;-141.84;100.00;14147.69;5029742;28;20716;-61
2022/10/27 06:36:37;;;;;;;13.67;11.57;;;10.60;99.90;;;-141.84;100.00;14129.44;5033271;28;20238;-60
2022/10/27 06:39:05;;;;;;;15.50;11.53;;;10.60;99.90;;;-141.84;100.00;14147.69;5033638;28;20229;-60
2022/10/27 06:41:33;;;;;;;13.23;11.13;;;10.70;99.90;;;-141.84;100.00;14155.81;5033456;28;20692;-60
2022/10/27 06:44:01;;;;;;;14.80;11.30;;;10.80;99.90;;;-141.84;100.00;14123.34;5034053;28;20264;-59
2022/10/27 06:46:29;;;;;;;17.77;12.80;;;10.90;99.90;;;-141.84;100.00;14149.72;5033405;28;20225;-60
2022/10/27 06:48:59;;;;;;;16.13;12.93;;;11.00;99.90;;;-141.84;100.00;14105.06;5033506;28;20222;-60
2022/10/27 06:51:27;;;;;;;22.40;13.67;;;11.10;99.90;;;-141.84;100.00;14163.94;5032942;28;20233;-60
2022/10/27 06:53:55;;;;;;;17.33;12.93;;;11.10;99.90;;;-141.84;100.00;14159.88;5032314;28;20234;-61
2022/10/27 06:56:23;;;;;;;14.43;12.87;;;11.30;99.90;;;-141.84;100.00;14180.16;5031934;28;20214;-59
2022/10/27 06:58:51;;;;;;;16.03;12.37;;;11.30;99.90;;;-141.84;100.00;14165.94;5032848;28;20234;-60
2022/10/27 07:01:21;;;;;;;19.70;12.80;;;11.40;99.90;;;-141.84;100.00;14212.63;5031673;28;20254;-61
2022/10/27 07:03:51;;;;;;;19.47;12.90;;;11.50;99.90;;;-141.84;100.00;14174.06;5031925;28;20640;-61
2022/10/27 07:06:20;;;;;;;16.20;12.90;;;11.60;99.90;;;-141.84;100.00;14192.34;5033056;28;20621;-59
2022/10/27 07:08:48;;;;;;;18.27;13.10;;;11.70;99.90;;;-141.84;100.00;14194.38;5033049;28;20222;-60
2022/10/27 07:11:16;;;;;;;17.73;12.13;;;11.80;99.90;;;-141.84;100.00;14192.34;5033047;28;20218;-60
2022/10/27 07:13:44;;;;;;;17.47;11.83;;;11.90;99.90;;;-141.84;100.00;14224.81;5033595;28;20222;-61
2022/10/27 07:16:12;;;;;;;13.70;11.37;;;12.00;99.90;;;-141.84;100.00;14196.41;5033230;28;20237;-61
2022/10/27 07:18:42;;;;;;;15.37;11.60;;;12.00;99.90;;;-141.84;100.00;14226.84;5032948;28;20607;-59
2022/10/27 07:21:10;;;;;;;12.60;11.30;;;12.10;99.90;;;-141.84;100.00;14216.69;5032865;28;20234;-58
2022/10/27 07:23:39;;;;;;;11.63;10.13;;;12.20;99.90;;;-141.84;100.00;14239.00;5032810;28;20230;-60
2022/10/27 07:26:07;;;;;;;15.65;12.30;;;12.40;99.90;;;-141.84;100.00;14265.41;5033245;28;20217;-60
2022/10/27 07:28:35;;;;;;;13.07;11.63;;;12.50;99.90;;;-141.84;100.00;14232.94;5032347;28;20590;-59
2022/10/27 07:31:03;;;;;;;13.52;10.32;;;12.60;99.90;;;-141.84;100.00;14245.09;5032642;28;20284;-59
2022/10/27 07:33:32;;;;;;;14.85;10.82;;;12.70;99.90;;;-141.84;100.00;14241.03;5032542;28;20228;-60
2022/10/27 07:35:59;;;;;;;11.50;10.18;;;12.80;99.90;;;-141.84;100.00;14243.06;5032516;28;20226;-58
2022/10/27 07:38:27;;;;;;;18.20;11.57;;;12.80;99.90;;;-141.84;100.00;14253.22;5032405;28;20222;-60
2022/10/27 07:40:57;;;;;;;11.25;8.73;;;13.00;99.90;;;-141.84;100.00;14285.69;5033296;28;20227;-60
2022/10/27 07:43:25;;;;;;;14.68;11.10;;;13.00;99.90;;;-141.84;100.00;14253.22;5032445;28;20288;-59
2022/10/27 07:45:53;;;;;;;10.43;9.05;;;13.10;99.90;;;-141.84;100.00;14285.69;5032259;28;20701;-60
2022/10/27 07:48:22;;;;;;;11.88;9.10;;;13.20;99.90;;;-141.84;100.00;14226.84;5032501;28;20229;-60
2022/10/27 07:50:50;;;;;;;12.35;9.32;;;13.30;99.90;;;-141.84;100.00;14247.13;5032120;28;20232;-60
2022/10/27 07:53:19;;;;;;;10.77;9.00;;;13.40;99.90;;;-141.84;100.00;14249.16;5032195;28;20265;-60
2022/10/27 07:55:47;;;;;;;10.88;9.10;;;13.50;99.90;;;-141.84;100.00;14279.59;5032769;28;20685;-59
2022/10/27 07:58:17;;;;;;;8.93;8.00;;;13.50;99.90;;;-141.84;100.00;14253.22;5032006;28;20238;-59
2022/10/27 08:00:47;;;;;;;11.43;9.23;;;13.70;99.90;;;-141.84;100.00;14251.19;5032280;28;20230;-60
2022/10/27 08:03:18;;;;;;;12.70;8.70;;;13.70;99.90;;;-141.84;100.00;14245.09;5031988;28;20245;-60
2022/10/27 08:05:47;;;;;;;11.50;8.40;;;13.90;99.90;;;-141.84;100.00;14243.06;5032228;28;20230;-59
2022/10/27 08:08:16;;;;;;;9.85;8.70;;;14.00;99.90;;;-141.84;100.00;14275.53;5032337;28;20259;-59
2022/10/27 08:10:47;;;;;;;9.05;7.90;;;14.00;99.90;;;-141.84;100.00;14326.28;5032380;28;20624;-60
2022/10/27 08:13:18;;;;;;;11.05;8.27;;;14.10;99.90;;;-141.84;100.00;14312.06;5031797;28;20234;-60
2022/10/27 08:15:46;;;;;;;10.10;7.35;;;14.10;99.90;;;-141.84;100.00;14370.94;5032075;28;20233;-59
2022/10/27 08:18:15;;;;;;;9.02;7.28;;;14.20;99.90;;;-141.84;100.00;14482.56;5031850;28;20241;-59
2022/10/27 08:20:45;;;;;;;9.52;7.30;;;14.50;99.90;;;-141.84;100.00;14598.25;5031983;28;20234;-60
2022/10/27 08:23:15;;;;;;;9.63;7.07;;;14.50;99.90;;;-141.84;100.00;14675.38;5032125;28;20283;-60
2022/10/27 08:25:44;;;;;;;9.25;7.63;;;14.60;99.90;;;-141.84;98.80;14805.28;5032237;28;20229;-60
2022/10/27 08:28:14;;;;;;;9.57;7.10;;;14.60;99.90;;;-141.84;96.04;14961.56;5031608;28;20242;-59
2022/10/27 08:30:44;;;;;;;7.72;6.13;;;14.70;99.90;;;-141.84;94.22;15182.81;5031554;28;20237;-59
2022/10/27 08:33:20;;;;;;;6.43;5.80;;;14.80;99.90;;;-141.84;94.25;15262.00;5031539;28;20667;-60
2022/10/27 08:35:50;;;;;;;9.20;6.95;;;15.00;99.90;;;-141.84;92.12;15442.66;5031335;28;20222;-59
2022/10/27 08:38:19;;;;;;;9.20;6.63;;;15.10;99.90;;;-141.84;91.21;15584.78;5031014;28;20795;-60
2022/10/27 08:41:03;;;;;;;8.45;7.15;;;15.20;99.90;;;-141.84;91.55;15637.56;5032298;28;20228;-60
2022/10/27 08:44:10;;;;;;;9.38;7.10;;;15.40;99.90;;;-141.84;87.12;15881.19;5031204;28;20226;-61
2022/10/27 08:46:47;;;;;;;7.05;6.25;;;15.50;99.90;;;-141.84;85.22;16230.41;5031530;28;20284;-59
2022/10/27 08:49:40;;;;;;;10.05;6.97;;;15.50;99.90;;;-141.84;84.83;16271.03;5030759;28;20230;-60
2022/10/27 08:52:24;;;;;;;7.55;6.85;;;15.60;99.90;;;-141.84;82.76;16510.63;5031380;28;20230;-59
2022/10/27 08:54:59;;;;;;;7.97;6.38;;;15.60;99.90;;;-141.84;83.89;16526.88;5030809;28;20233;-61
2022/10/27 08:57:33;;;;;;;7.88;7.00;;;15.70;99.90;;;-141.84;79.99;16697.44;5030250;28;20287;-60
2022/10/27 09:00:12;;;;;;;7.68;6.03;;;15.90;99.90;;;-141.84;80.33;16768.53;5031129;28;20447;-58
2022/10/27 09:03:05;;;;;;;8.75;6.20;;;16.00;99.90;;;-141.84;79.09;16841.63;5031302;28;20238;-59
2022/10/27 09:05:53;;;;;;;8.60;6.50;;;16.10;99.90;;;-141.84;78.41;16904.59;5030898;28;20674;-59
2022/10/27 09:08:41;;;;;;;10.90;7.22;;;16.20;99.90;;;-141.84;78.38;16991.91;5030711;28;20586;-59
2022/10/27 09:11:25;;;;;;;11.75;7.90;;;16.30;99.90;;;-141.84;76.58;17034.56;5031279;28;20213;-60
2022/10/27 09:14:22;;;;;;;9.80;6.75;;;16.40;99.90;;;-141.84;76.85;17156.41;5030776;28;20295;-59
2022/10/27 09:16:57;;;;;;;9.07;6.30;;;16.50;99.90;;;-141.84;72.48;17339.22;5030964;28;20225;-58
2022/10/27 09:19:32;;;;;;;10.50;5.90;;;16.60;99.90;;;-141.84;73.28;17365.63;5030214;28;20238;-61
2022/10/27 09:22:06;;;;;;;6.55;5.57;;;16.60;99.90;;;-141.84;74.26;17420.47;5030947;28;20225;-59
2022/10/27 09:24:38;;;;;;;6.78;5.70;;;16.60;99.90;;;-141.84;73.66;17483.41;5030452;28;20233;-59
2022/10/27 09:27:08;;;;;;;6.05;5.10;;;16.70;99.90;;;-141.84;74.07;17495.59;5030764;28;20240;-60
2022/10/27 09:29:39;;;;;;;6.68;5.05;;;16.80;99.90;;;-141.84;73.26;17497.63;5030660;28;20245;-60
2022/10/27 09:32:18;;;;;;;7.50;4.90;;;16.90;99.90;;;-141.84;71.99;17656.06;5030904;28;20186;-61
2022/10/27 09:35:00;;;;;;;7.80;5.28;;;17.00;99.90;;;-141.84;71.17;17727.16;5030796;28;20288;-59
2022/10/27 09:37:31;;;;;;;6.45;5.32;;;17.10;99.90;;;-141.84;70.58;17790.13;5030552;28;20705;-60
2022/10/27 09:39:59;;;;;;;11.30;6.22;;;17.20;99.90;;;-141.84;69.67;17875.44;5030525;28;20283;-59
2022/10/27 09:42:29;;;;;;;13.52;6.90;;;17.30;99.90;;;-141.84;69.25;17940.47;5030382;28;20766;-60
2022/10/27 09:45:02;;;;;;;10.55;5.60;;;17.40;99.90;;;-141.84;68.34;18042.03;5030466;28;20728;-60
2022/10/27 09:47:38;;;;;;;7.38;4.32;;;17.50;99.90;;;-141.84;67.80;18102.97;5030632;28;20226;-60
2022/10/27 09:50:21;;;;;;;6.38;4.78;;;17.60;99.90;;;-141.84;67.12;18188.28;5030521;28;20197;-61
2022/10/27 09:52:50;;;;;;;5.80;4.88;;;17.80;99.90;;;-141.84;67.02;18287.84;5030453;28;20230;-60
2022/10/27 09:55:21;;;;;;;9.23;5.05;;;17.80;99.90;;;-141.84;66.45;18320.34;5030485;28;20237;-61
2022/10/27 09:57:50;;;;;;;5.93;4.47;;;17.90;99.90;;;-141.84;66.28;18381.28;5030691;28;20233;-60
2022/10/27 10:00:29;;;;;;;6.90;4.60;;;18.00;99.90;;;-141.84;64.89;18507.25;5030256;28;20275;-60
2022/10/27 10:03:04;;;;;;;10.50;4.47;;;18.00;99.90;;;-141.84;65.25;18501.16;5030358;28;20271;-59
2022/10/27 10:05:36;;;;;;;5.28;3.72;;;18.00;99.90;;;-141.84;65.59;18556.00;5030571;28;20222;-60
2022/10/27 10:08:22;;;;;;;5.63;4.13;;;18.10;99.90;;;-141.84;65.42;18566.16;5030591;28;20189;-60